Anderson Regional Airport
KAND : now visible

Airfield :











YOU CAN JOIN US ON...

 
LOGIN :

Register | Disclaimer

   EN    FR    IT 

 









Legend :    VFR   Marginal VFR   IFR   Intensive IFR   Very Intensive IFR
Visi :
Ceiling :
>= 8 km
>= 3000ft
5 to 8 km
1000 to 3000 ft
1500m to 5 km
500 to 1000 ft
800 to 1500m
200 to 500 ft
< 800m
< 200 ft
Symbols :   Thunderstorms  Fog  Heavy snow  Heavy precipitations  Wind > 20 kt







- Airport Elevation : 782 ft


KAND - Anderson Regional

CURRENT METAR :
  • 181556Z AUTO 21005KT 10SM OVC021 21/16 A3004 RMK AO2 SLP167 T02060161

EXPIRED METARs :
  • 181456Z AUTO 21006KT 10SM OVC015 19/16 A3005 RMK AO2 SLP171 T01940161 53005
  • 181417Z AUTO 19006KT 10SM OVC011 19/16 A3004 RMK AO2 T01890161
  • 181356Z AUTO 18007KT 10SM OVC009 18/16 A3003 RMK AO2 CIG 008V013 SLP164 T01830161
  • 181352Z AUTO 17005KT 10SM OVC009 18/16 A3003 RMK AO2 CIG 008V013

TAF KAND
Valid from the 18 at 15:00 until the 19 at 12:00 UTC


181515Z 1815/1912 20006KT P6SM BKN015
FM181630 17009G18KT P6SM BKN050
FM190700 16011G18KT P6SM OVC030
PROB30 1907/1909 4SM -SHRA OVC015
FM190900 16013G22KT P6SM -SHRA OVC020
KZTL FIR / North America



MET'MAP, your aeronautical weather chart ! - Copyright ORBIFLY December 2007 - Disclaimer

ORBIFLY MET'MAP TEAM :

Programming & Development : Alexandra Zaïnal
Concept & Development : Baudouin d'Aumeries
Co-Development & Prog : Marc-Olivier Méhu
Technical & hardware support : Manuel Goepfert

Contact : metmap@orbifly.com




SOURCES & CREDITS :

   NOAA       Earth
Advisory